DTTA/TUN METAR and TAF weather

Enter ICAO airport designator
Station Type Date Time Source
DTTA METAR 2018/01/24 07:00 UTC NOAA

DTTA 240700Z 17004KT 9999 FEW026 SCT040 10/08 Q1029 NOSIG


Station Type Date Time Source
DTTA Decoded METAR 2018/01/24 07:00 UTC NOAA

Tunis-Carthage, Tunisia (DTTA) 36-50N 010-14E 4M
Jan 24, 2018 - 02:00 AM EST / 2018.01.24 0700 UTC
Wind: from the S (170 degrees) at 5 MPH (4 KT):0
Visibility: greater than 7 mile(s):0
Sky conditions: partly cloudy
Temperature: 50 F (10 C)
Dew Point: 46 F (8 C)
Relative Humidity: 87%
Pressure (altimeter): 30.39 in. Hg (1029 hPa)
ob: DTTA 240700Z 17004KT 9999 FEW026 SCT040 10/08 Q1029 NOSIG
cycle: 7

Station Type Date Time Source
DTTA TAF 2018/01/24 06:39 UTC NOAA

TAF DTTA 240530Z 2406/2506 31004KT 9999 FEW026TCU
BECMG 2409/2411 VRB02KT CAVOK PROB30
TEMPO 2501/2506 4000 BR FEW014


Example: see airport list